sensor_id;sensor_type;location;lat;lon;timestamp;temperature;humidity
6468;DHT22;3267;48.794;9.928;2023-12-29T05:03:19;13.00;99.90
6468;DHT22;3267;48.794;9.928;2023-12-29T05:05:48;12.50;99.90
6468;DHT22;3267;48.794;9.928;2023-12-29T05:08:14;13.00;99.90
6468;DHT22;3267;48.794;9.928;2023-12-29T05:10:39;16.30;99.90
6468;DHT22;3267;48.794;9.928;2023-12-29T05:13:05;12.80;99.90
6468;DHT22;3267;48.794;9.928;2023-12-29T05:15:30;15.50;99.90
6468;DHT22;3267;48.794;9.928;2023-12-29T05:17:56;12.90;99.90
6468;DHT22;3267;48.794;9.928;2023-12-29T05:20:22;13.00;99.90
6468;DHT22;3267;48.794;9.928;2023-12-29T05:22:47;13.10;99.90
6468;DHT22;3267;48.794;9.928;2023-12-29T05:25:13;12.90;99.90
6468;DHT22;3267;48.794;9.928;2023-12-29T05:27:39;12.80;99.90
6468;DHT22;3267;48.794;9.928;2023-12-29T05:30:05;13.20;99.90
6468;DHT22;3267;48.794;9.928;2023-12-29T05:32:31;12.70;99.90
6468;DHT22;3267;48.794;9.928;2023-12-29T05:34:57;12.70;99.90
6468;DHT22;3267;48.794;9.928;2023-12-29T05:37:23;12.60;99.90
6468;DHT22;3267;48.794;9.928;2023-12-29T05:39:48;12.60;99.90
6468;DHT22;3267;48.794;9.928;2023-12-29T05:42:14;12.60;99.90
6468;DHT22;3267;48.794;9.928;2023-12-29T05:44:39;12.50;99.90
6468;DHT22;3267;48.794;9.928;2023-12-29T05:47:05;12.60;99.90
6468;DHT22;3267;48.794;9.928;2023-12-29T05:49:31;12.60;99.90
6468;DHT22;3267;48.794;9.928;2023-12-29T05:51:57;12.70;99.90
6468;DHT22;3267;48.794;9.928;2023-12-29T05:54:23;12.50;99.90
6468;DHT22;3267;48.794;9.928;2023-12-29T05:56:50;12.60;99.90
6468;DHT22;3267;48.794;9.928;2023-12-29T05:59:15;12.40;99.90
6468;DHT22;3267;48.794;9.928;2023-12-29T06:01:41;12.40;99.90
6468;DHT22;3267;48.794;9.928;2023-12-29T06:04:07;12.60;99.90
6468;DHT22;3267;48.794;9.928;2023-12-29T06:06:32;12.60;99.90
6468;DHT22;3267;48.794;9.928;2023-12-29T06:08:58;12.50;99.90
6468;DHT22;3267;48.794;9.928;2023-12-29T06:11:24;12.40;99.90
6468;DHT22;3267;48.794;9.928;2023-12-29T06:13:50;12.50;99.90
6468;DHT22;3267;48.794;9.928;2023-12-29T06:16:20;12.50;99.90
6468;DHT22;3267;48.794;9.928;2023-12-29T06:18:47;12.60;99.90
6468;DHT22;3267;48.794;9.928;2023-12-29T06:21:13;12.70;99.90
6468;DHT22;3267;48.794;9.928;2023-12-29T06:23:38;13.30;99.90
6468;DHT22;3267;48.794;9.928;2023-12-29T06:26:04;12.60;99.90
6468;DHT22;3267;48.794;9.928;2023-12-29T06:28:30;12.50;99.90
6468;DHT22;3267;48.794;9.928;2023-12-29T06:30:55;12.60;99.90
6468;DHT22;3267;48.794;9.928;2023-12-29T06:33:21;12.90;99.90
6468;DHT22;3267;48.794;9.928;2023-12-29T06:35:47;13.00;99.90
6468;DHT22;3267;48.794;9.928;2023-12-29T06:38:13;12.90;99.90
6468;DHT22;3267;48.794;9.928;2023-12-29T06:40:39;12.80;99.90
6468;DHT22;3267;48.794;9.928;2023-12-29T06:43:05;12.80;99.90
6468;DHT22;3267;48.794;9.928;2023-12-29T06:45:31;12.60;99.90
6468;DHT22;3267;48.794;9.928;2023-12-29T06:47:57;13.00;99.90
6468;DHT22;3267;48.794;9.928;2023-12-29T06:50:22;12.70;99.90
6468;DHT22;3267;48.794;9.928;2023-12-29T06:52:48;12.60;99.90
6468;DHT22;3267;48.794;9.928;2023-12-29T06:55:13;12.80;99.90
6468;DHT22;3267;48.794;9.928;2023-12-29T06:57:39;12.70;99.90
6468;DHT22;3267;48.794;9.928;2023-12-29T07:00:05;13.00;99.90
6468;DHT22;3267;48.794;9.928;2023-12-29T07:02:31;13.10;99.90
6468;DHT22;3267;48.794;9.928;2023-12-29T07:04:57;12.80;99.90
6468;DHT22;3267;48.794;9.928;2023-12-29T07:07:22;12.80;99.90
6468;DHT22;3267;48.794;9.928;2023-12-29T07:09:48;12.70;99.90
6468;DHT22;3267;48.794;9.928;2023-12-29T07:12:14;12.80;99.90
6468;DHT22;3267;48.794;9.928;2023-12-29T07:14:41;12.70;99.90
6468;DHT22;3267;48.794;9.928;2023-12-29T07:17:07;13.10;99.90
6468;DHT22;3267;48.794;9.928;2023-12-29T07:19:32;13.00;99.90
6468;DHT22;3267;48.794;9.928;2023-12-29T07:22:05;12.90;99.90
6468;DHT22;3267;48.794;9.928;2023-12-29T07:24:35;13.10;99.90
6468;DHT22;3267;48.794;9.928;2023-12-29T07:27:01;14.20;99.90
6468;DHT22;3267;48.794;9.928;2023-12-29T07:29:27;12.90;99.90
6468;DHT22;3267;48.794;9.928;2023-12-29T07:31:53;12.70;99.90
6468;DHT22;3267;48.794;9.928;2023-12-29T07:34:19;12.60;99.90
6468;DHT22;3267;48.794;9.928;2023-12-29T07:36:45;12.80;99.90
6468;DHT22;3267;48.794;9.928;2023-12-29T07:39:10;12.80;99.90
6468;DHT22;3267;48.794;9.928;2023-12-29T07:41:40;15.00;99.90
6468;DHT22;3267;48.794;9.928;2023-12-29T07:44:06;12.90;99.90
6468;DHT22;3267;48.794;9.928;2023-12-29T07:46:32;12.80;99.90
6468;DHT22;3267;48.794;9.928;2023-12-29T07:48:57;14.70;99.90
6468;DHT22;3267;48.794;9.928;2023-12-29T07:51:23;15.40;99.90
6468;DHT22;3267;48.794;9.928;2023-12-29T07:53:49;16.20;99.90
6468;DHT22;3267;48.794;9.928;2023-12-29T07:56:14;15.70;99.90
6468;DHT22;3267;48.794;9.928;2023-12-29T07:58:40;13.30;99.90
6468;DHT22;3267;48.794;9.928;2023-12-29T08:01:05;13.00;99.90
6468;DHT22;3267;48.794;9.928;2023-12-29T08:03:31;15.30;99.90
6468;DHT22;3267;48.794;9.928;2023-12-29T08:05:57;13.20;99.90
6468;DHT22;3267;48.794;9.928;2023-12-29T08:08:26;13.10;99.90
6468;DHT22;3267;48.794;9.928;2023-12-29T08:10:51;13.00;99.90
6468;DHT22;3267;48.794;9.928;2023-12-29T08:13:17;13.00;99.90
6468;DHT22;3267;48.794;9.928;2023-12-29T08:15:44;14.00;99.90
6468;DHT22;3267;48.794;9.928;2023-12-29T08:18:10;12.70;99.90
6468;DHT22;3267;48.794;9.928;2023-12-29T08:20:36;12.80;99.90
6468;DHT22;3267;48.794;9.928;2023-12-29T08:23:02;15.60;99.90
6468;DHT22;3267;48.794;9.928;2023-12-29T08:25:29;13.10;99.90
6468;DHT22;3267;48.794;9.928;2023-12-29T08:27:55;13.20;99.90
6468;DHT22;3267;48.794;9.928;2023-12-29T08:30:21;14.40;99.90
6468;DHT22;3267;48.794;9.928;2023-12-29T08:32:47;13.10;99.90
6468;DHT22;3267;48.794;9.928;2023-12-29T08:35:12;12.90;99.90
6468;DHT22;3267;48.794;9.928;2023-12-29T08:37:38;15.40;99.90
6468;DHT22;3267;48.794;9.928;2023-12-29T08:40:04;13.10;99.90
6468;DHT22;3267;48.794;9.928;2023-12-29T08:42:31;13.20;99.90
6468;DHT22;3267;48.794;9.928;2023-12-29T08:44:59;13.00;99.90
6468;DHT22;3267;48.794;9.928;2023-12-29T08:47:24;13.70;99.90
6468;DHT22;3267;48.794;9.928;2023-12-29T08:49:50;12.90;99.90
6468;DHT22;3267;48.794;9.928;2023-12-29T08:52:16;13.00;99.90
6468;DHT22;3267;48.794;9.928;2023-12-29T08:54:42;13.40;99.90
6468;DHT22;3267;48.794;9.928;2023-12-29T08:57:07;13.10;99.90
6468;DHT22;3267;48.794;9.928;2023-12-29T08:59:33;12.90;99.90
6468;DHT22;3267;48.794;9.928;2023-12-29T09:01:59;13.00;99.90
6468;DHT22;3267;48.794;9.928;2023-12-29T09:04:25;13.70;99.90
6468;DHT22;3267;48.794;9.928;2023-12-29T09:06:51;15.30;99.90
6468;DHT22;3267;48.794;9.928;2023-12-29T09:09:17;12.90;99.90
6468;DHT22;3267;48.794;9.928;2023-12-29T09:11:43;13.10;99.90
6468;DHT22;3267;48.794;9.928;2023-12-29T09:14:09;13.00;99.90
6468;DHT22;3267;48.794;9.928;2023-12-29T09:16:35;13.10;99.90
6468;DHT22;3267;48.794;9.928;2023-12-29T09:19:02;13.30;99.90
6468;DHT22;3267;48.794;9.928;2023-12-29T09:21:28;13.20;99.90
6468;DHT22;3267;48.794;9.928;2023-12-29T09:23:54;13.40;99.90
6468;DHT22;3267;48.794;9.928;2023-12-29T09:26:21;15.10;99.90
6468;DHT22;3267;48.794;9.928;2023-12-29T09:28:47;13.20;99.90
6468;DHT22;3267;48.794;9.928;2023-12-29T09:31:13;13.10;99.90
6468;DHT22;3267;48.794;9.928;2023-12-29T09:33:38;13.30;99.90
6468;DHT22;3267;48.794;9.928;2023-12-29T09:36:05;13.10;99.90
6468;DHT22;3267;48.794;9.928;2023-12-29T09:38:30;13.20;99.90
6468;DHT22;3267;48.794;9.928;2023-12-29T09:41:09;14.90;99.90
6468;DHT22;3267;48.794;9.928;2023-12-29T09:43:36;13.30;99.90
6468;DHT22;3267;48.794;9.928;2023-12-29T09:46:04;13.40;99.90
6468;DHT22;3267;48.794;9.928;2023-12-29T09:48:31;13.60;99.90
6468;DHT22;3267;48.794;9.928;2023-12-29T09:50:58;15.70;99.90
6468;DHT22;3267;48.794;9.928;2023-12-29T09:53:27;16.00;99.90
6468;DHT22;3267;48.794;9.928;2023-12-29T09:55:58;13.20;99.90
6468;DHT22;3267;48.794;9.928;2023-12-29T09:58:25;14.10;99.90
6468;DHT22;3267;48.794;9.928;2023-12-29T10:00:52;13.20;99.90
6468;DHT22;3267;48.794;9.928;2023-12-29T10:03:18;13.30;99.90
6468;DHT22;3267;48.794;9.928;2023-12-29T10:05:45;13.30;99.90
6468;DHT22;3267;48.794;9.928;2023-12-29T10:08:15;15.00;99.90
6468;DHT22;3267;48.794;9.928;2023-12-29T10:10:42;13.40;99.90
6468;DHT22;3267;48.794;9.928;2023-12-29T10:13:11;14.50;99.90
6468;DHT22;3267;48.794;9.928;2023-12-29T10:15:56;14.20;99.90
6468;DHT22;3267;48.794;9.928;2023-12-29T10:18:51;13.20;99.90
6468;DHT22;3267;48.794;9.928;2023-12-29T10:21:28;13.10;99.90
6468;DHT22;3267;48.794;9.928;2023-12-29T10:23:57;13.00;99.90
6468;DHT22;3267;48.794;9.928;2023-12-29T10:26:24;13.00;99.90
6468;DHT22;3267;48.794;9.928;2023-12-29T10:28:52;15.60;99.90
6468;DHT22;3267;48.794;9.928;2023-12-29T10:31:18;13.70;99.90
6468;DHT22;3267;48.794;9.928;2023-12-29T10:33:46;15.70;99.90
6468;DHT22;3267;48.794;9.928;2023-12-29T10:36:16;16.50;99.90
6468;DHT22;3267;48.794;9.928;2023-12-29T10:38:42;14.30;99.90
6468;DHT22;3267;48.794;9.928;2023-12-29T10:41:18;13.70;99.90
6468;DHT22;3267;48.794;9.928;2023-12-29T10:43:45;13.70;99.90
6468;DHT22;3267;48.794;9.928;2023-12-29T10:46:18;13.60;99.90
6468;DHT22;3267;48.794;9.928;2023-12-29T10:48:44;13.80;99.90
6468;DHT22;3267;48.794;9.928;2023-12-29T10:51:26;13.40;99.90
6468;DHT22;3267;48.794;9.928;2023-12-29T10:53:55;13.70;99.90
6468;DHT22;3267;48.794;9.928;2023-12-29T10:56:24;13.80;99.90
6468;DHT22;3267;48.794;9.928;2023-12-29T10:59:02;13.80;99.90
6468;DHT22;3267;48.794;9.928;2023-12-29T11:01:32;13.60;99.90
6468;DHT22;3267;48.794;9.928;2023-12-29T11:04:02;14.00;99.90
6468;DHT22;3267;48.794;9.928;2023-12-29T11:06:28;14.00;99.90
6468;DHT22;3267;48.794;9.928;2023-12-29T11:08:59;13.80;99.90
6468;DHT22;3267;48.794;9.928;2023-12-29T11:11:26;13.90;99.90
6468;DHT22;3267;48.794;9.928;2023-12-29T11:13:53;14.20;99.90
6468;DHT22;3267;48.794;9.928;2023-12-29T11:16:21;14.10;99.90
6468;DHT22;3267;48.794;9.928;2023-12-29T11:18:49;15.90;99.90
6468;DHT22;3267;48.794;9.928;2023-12-29T11:21:21;14.20;99.90
6468;DHT22;3267;48.794;9.928;2023-12-29T11:23:48;14.20;99.90
6468;DHT22;3267;48.794;9.928;2023-12-29T11:26:14;14.30;99.90
6468;DHT22;3267;48.794;9.928;2023-12-29T11:28:40;14.20;99.90
6468;DHT22;3267;48.794;9.928;2023-12-29T11:31:07;14.20;99.90
6468;DHT22;3267;48.794;9.928;2023-12-29T11:33:41;14.40;99.90
6468;DHT22;3267;48.794;9.928;2023-12-29T11:36:10;14.40;99.90
6468;DHT22;3267;48.794;9.928;2023-12-29T11:41:41;14.30;99.90
6468;DHT22;3267;48.794;9.928;2023-12-29T11:44:08;14.40;99.90
6468;DHT22;3267;48.794;9.928;2023-12-29T11:46:38;14.50;99.90
6468;DHT22;3267;48.794;9.928;2023-12-29T11:49:04;16.50;99.90
6468;DHT22;3267;48.794;9.928;2023-12-29T11:51:35;14.70;99.90
6468;DHT22;3267;48.794;9.928;2023-12-29T11:54:03;14.60;99.90
6468;DHT22;3267;48.794;9.928;2023-12-29T11:56:35;14.60;99.90
6468;DHT22;3267;48.794;9.928;2023-12-29T11:59:18;14.50;99.90
6468;DHT22;3267;48.794;9.928;2023-12-29T12:01:58;14.60;99.90
6468;DHT22;3267;48.794;9.928;2023-12-29T12:07:07;14.40;99.90
6468;DHT22;3267;48.794;9.928;2023-12-29T12:09:35;14.50;99.90
6468;DHT22;3267;48.794;9.928;2023-12-29T12:12:02;14.30;99.90
6468;DHT22;3267;48.794;9.928;2023-12-29T12:14:51;14.20;99.90
6468;DHT22;3267;48.794;9.928;2023-12-29T12:17:32;14.10;99.90
6468;DHT22;3267;48.794;9.928;2023-12-29T12:20:09;14.20;99.90
6468;DHT22;3267;48.794;9.928;2023-12-29T12:22:36;14.20;99.90
6468;DHT22;3267;48.794;9.928;2023-12-29T12:25:05;15.00;99.90
6468;DHT22;3267;48.794;9.928;2023-12-29T12:27:32;14.00;99.90
6468;DHT22;3267;48.794;9.928;2023-12-29T12:29:58;15.00;99.90
6468;DHT22;3267;48.794;9.928;2023-12-29T12:32:28;14.10;99.90
6468;DHT22;3267;48.794;9.928;2023-12-29T12:34:54;14.20;99.90
6468;DHT22;3267;48.794;9.928;2023-12-29T12:37:25;15.70;99.90
6468;DHT22;3267;48.794;9.928;2023-12-29T12:39:53;14.00;99.90
6468;DHT22;3267;48.794;9.928;2023-12-29T12:42:19;15.20;99.90
6468;DHT22;3267;48.794;9.928;2023-12-29T12:45:06;14.00;99.90
6468;DHT22;3267;48.794;9.928;2023-12-29T12:47:45;14.20;99.90
6468;DHT22;3267;48.794;9.928;2023-12-29T12:50:12;14.40;99.90
6468;DHT22;3267;48.794;9.928;2023-12-29T12:52:38;14.70;99.90
6468;DHT22;3267;48.794;9.928;2023-12-29T12:55:06;14.90;99.90
6468;DHT22;3267;48.794;9.928;2023-12-29T12:57:33;14.80;99.90
6468;DHT22;3267;48.794;9.928;2023-12-29T13:00:00;15.00;99.90
6468;DHT22;3267;48.794;9.928;2023-12-29T13:02:27;15.50;99.90
6468;DHT22;3267;48.794;9.928;2023-12-29T13:04:54;14.60;99.90
6468;DHT22;3267;48.794;9.928;2023-12-29T13:07:20;17.00;99.90
6468;DHT22;3267;48.794;9.928;2023-12-29T13:09:51;17.00;99.90
6468;DHT22;3267;48.794;9.928;2023-12-29T13:12:18;17.90;99.90
6468;DHT22;3267;48.794;9.928;2023-12-29T13:14:44;17.90;99.90
6468;DHT22;3267;48.794;9.928;2023-12-29T13:17:13;14.80;99.90
6468;DHT22;3267;48.794;9.928;2023-12-29T13:19:39;14.60;99.90
6468;DHT22;3267;48.794;9.928;2023-12-29T13:22:11;14.80;99.90
6468;DHT22;3267;48.794;9.928;2023-12-29T13:24:44;15.80;99.90
6468;DHT22;3267;48.794;9.928;2023-12-29T13:27:11;14.60;99.90
6468;DHT22;3267;48.794;9.928;2023-12-29T13:29:40;15.10;99.90
6468;DHT22;3267;48.794;9.928;2023-12-29T13:32:21;17.70;99.90
6468;DHT22;3267;48.794;9.928;2023-12-29T13:38:24;14.70;99.90
6468;DHT22;3267;48.794;9.928;2023-12-29T13:41:01;16.20;99.90
6468;DHT22;3267;48.794;9.928;2023-12-29T13:43:30;15.00;99.90
6468;DHT22;3267;48.794;9.928;2023-12-29T13:46:00;16.70;99.90
6468;DHT22;3267;48.794;9.928;2023-12-29T13:48:28;15.00;99.90
6468;DHT22;3267;48.794;9.928;2023-12-29T13:50:54;14.90;99.90
6468;DHT22;3267;48.794;9.928;2023-12-29T13:53:21;14.80;99.90
6468;DHT22;3267;48.794;9.928;2023-12-29T13:55:48;16.40;99.90
6468;DHT22;3267;48.794;9.928;2023-12-29T13:58:15;14.80;99.90
6468;DHT22;3267;48.794;9.928;2023-12-29T14:00:43;16.60;99.90
6468;DHT22;3267;48.794;9.928;2023-12-29T14:03:25;14.80;99.90
6468;DHT22;3267;48.794;9.928;2023-12-29T14:06:00;15.80;99.90
6468;DHT22;3267;48.794;9.928;2023-12-29T14:08:45;14.50;99.90
6468;DHT22;3267;48.794;9.928;2023-12-29T14:11:11;14.70;99.90
6468;DHT22;3267;48.794;9.928;2023-12-29T14:13:44;14.90;99.90
6468;DHT22;3267;48.794;9.928;2023-12-29T14:16:11;15.00;99.90
6468;DHT22;3267;48.794;9.928;2023-12-29T14:21:31;14.60;99.90
6468;DHT22;3267;48.794;9.928;2023-12-29T14:24:10;14.50;99.90
6468;DHT22;3267;48.794;9.928;2023-12-29T14:26:40;16.70;99.90
6468;DHT22;3267;48.794;9.928;2023-12-29T14:29:08;14.40;99.90
6468;DHT22;3267;48.794;9.928;2023-12-29T14:31:42;14.30;99.90
6468;DHT22;3267;48.794;9.928;2023-12-29T14:34:09;14.30;99.90
6468;DHT22;3267;48.794;9.928;2023-12-29T14:36:37;14.30;99.90
6468;DHT22;3267;48.794;9.928;2023-12-29T14:39:03;14.50;99.90
6468;DHT22;3267;48.794;9.928;2023-12-29T14:41:30;14.50;99.90
6468;DHT22;3267;48.794;9.928;2023-12-29T14:43:56;14.40;99.90
6468;DHT22;3267;48.794;9.928;2023-12-29T14:46:22;14.80;99.90
6468;DHT22;3267;48.794;9.928;2023-12-29T14:48:48;14.40;99.90
6468;DHT22;3267;48.794;9.928;2023-12-29T14:51:14;14.50;99.90
6468;DHT22;3267;48.794;9.928;2023-12-29T14:53:49;14.60;99.90
6468;DHT22;3267;48.794;9.928;2023-12-29T14:56:16;14.50;99.90
6468;DHT22;3267;48.794;9.928;2023-12-29T14:58:42;14.50;99.90
6468;DHT22;3267;48.794;9.928;2023-12-29T15:01:08;14.40;99.90
6468;DHT22;3267;48.794;9.928;2023-12-29T15:03:35;14.20;99.90
6468;DHT22;3267;48.794;9.928;2023-12-29T15:06:01;14.50;99.90
6468;DHT22;3267;48.794;9.928;2023-12-29T15:08:27;14.50;99.90
6468;DHT22;3267;48.794;9.928;2023-12-29T15:10:57;14.20;99.90
6468;DHT22;3267;48.794;9.928;2023-12-29T15:13:24;14.30;99.90
6468;DHT22;3267;48.794;9.928;2023-12-29T15:15:50;14.60;99.90
6468;DHT22;3267;48.794;9.928;2023-12-29T15:18:17;14.60;99.90
6468;DHT22;3267;48.794;9.928;2023-12-29T15:20:44;14.40;99.90
6468;DHT22;3267;48.794;9.928;2023-12-29T15:23:09;14.60;99.90
6468;DHT22;3267;48.794;9.928;2023-12-29T15:25:35;14.50;99.90
6468;DHT22;3267;48.794;9.928;2023-12-29T15:28:05;14.40;99.90
6468;DHT22;3267;48.794;9.928;2023-12-29T15:30:35;14.40;99.90
6468;DHT22;3267;48.794;9.928;2023-12-29T15:33:00;14.70;99.90
6468;DHT22;3267;48.794;9.928;2023-12-29T15:35:26;14.60;99.90
6468;DHT22;3267;48.794;9.928;2023-12-29T15:37:54;14.40;99.90
6468;DHT22;3267;48.794;9.928;2023-12-29T15:40:20;17.30;99.90
6468;DHT22;3267;48.794;9.928;2023-12-29T15:42:46;14.60;99.90
6468;DHT22;3267;48.794;9.928;2023-12-29T15:45:12;14.40;99.90
6468;DHT22;3267;48.794;9.928;2023-12-29T15:47:38;16.70;99.90
6468;DHT22;3267;48.794;9.928;2023-12-29T15:50:04;14.30;99.90
6468;DHT22;3267;48.794;9.928;2023-12-29T15:52:31;13.20;99.90
6468;DHT22;3267;48.794;9.928;2023-12-29T15:54:57;14.30;99.90
6468;DHT22;3267;48.794;9.928;2023-12-29T15:57:26;16.20;99.90
6468;DHT22;3267;48.794;9.928;2023-12-29T15:59:51;13.90;99.90
6468;DHT22;3267;48.794;9.928;2023-12-29T16:02:17;14.00;99.90
6468;DHT22;3267;48.794;9.928;2023-12-29T16:04:43;13.80;99.90
6468;DHT22;3267;48.794;9.928;2023-12-29T16:07:08;13.80;99.90
6468;DHT22;3267;48.794;9.928;2023-12-29T16:09:34;13.70;99.90
6468;DHT22;3267;48.794;9.928;2023-12-29T16:12:00;13.50;99.90
6468;DHT22;3267;48.794;9.928;2023-12-29T16:14:26;13.50;99.90
6468;DHT22;3267;48.794;9.928;2023-12-29T16:16:53;13.90;99.90
6468;DHT22;3267;48.794;9.928;2023-12-29T16:19:19;13.80;99.90
6468;DHT22;3267;48.794;9.928;2023-12-29T16:21:44;13.80;99.90
6468;DHT22;3267;48.794;9.928;2023-12-29T16:24:10;14.60;99.90
6468;DHT22;3267;48.794;9.928;2023-12-29T16:26:38;14.30;99.90
6468;DHT22;3267;48.794;9.928;2023-12-29T16:29:12;14.20;99.90
6468;DHT22;3267;48.794;9.928;2023-12-29T16:31:37;13.90;99.90
6468;DHT22;3267;48.794;9.928;2023-12-29T16:34:03;13.70;99.90
6468;DHT22;3267;48.794;9.928;2023-12-29T16:36:29;13.60;99.90
6468;DHT22;3267;48.794;9.928;2023-12-29T16:38:55;13.60;99.90
6468;DHT22;3267;48.794;9.928;2023-12-29T16:41:21;13.60;99.90
6468;DHT22;3267;48.794;9.928;2023-12-29T16:43:48;13.40;99.90
6468;DHT22;3267;48.794;9.928;2023-12-29T16:46:14;13.30;99.90
6468;DHT22;3267;48.794;9.928;2023-12-29T16:48:39;13.30;99.90
6468;DHT22;3267;48.794;9.928;2023-12-29T16:51:05;13.40;99.90
6468;DHT22;3267;48.794;9.928;2023-12-29T16:53:36;13.60;99.90
6468;DHT22;3267;48.794;9.928;2023-12-29T16:56:02;15.10;99.90
6468;DHT22;3267;48.794;9.928;2023-12-29T16:58:28;13.60;99.90
6468;DHT22;3267;48.794;9.928;2023-12-29T17:00:54;13.90;99.90
6468;DHT22;3267;48.794;9.928;2023-12-29T17:03:20;13.90;99.90
6468;DHT22;3267;48.794;9.928;2023-12-29T17:05:46;13.80;99.90
6468;DHT22;3267;48.794;9.928;2023-12-29T17:08:12;14.10;99.90
6468;DHT22;3267;48.794;9.928;2023-12-29T17:10:38;14.30;99.90
6468;DHT22;3267;48.794;9.928;2023-12-29T17:13:04;13.90;99.90
6468;DHT22;3267;48.794;9.928;2023-12-29T17:15:30;14.20;99.90
6468;DHT22;3267;48.794;9.928;2023-12-29T17:17:56;16.40;99.90
6468;DHT22;3267;48.794;9.928;2023-12-29T17:20:22;13.50;99.90
6468;DHT22;3267;48.794;9.928;2023-12-29T17:22:47;13.70;99.90
6468;DHT22;3267;48.794;9.928;2023-12-29T17:25:13;13.70;99.90
6468;DHT22;3267;48.794;9.928;2023-12-29T17:27:39;13.60;99.90
6468;DHT22;3267;48.794;9.928;2023-12-29T17:30:05;13.50;99.90
6468;DHT22;3267;48.794;9.928;2023-12-29T17:32:31;13.30;99.90
6468;DHT22;3267;48.794;9.928;2023-12-29T17:34:58;13.70;99.90
6468;DHT22;3267;48.794;9.928;2023-12-29T17:37:23;13.30;99.90
6468;DHT22;3267;48.794;9.928;2023-12-29T17:39:52;15.80;99.90
6468;DHT22;3267;48.794;9.928;2023-12-29T17:42:19;13.10;99.90
6468;DHT22;3267;48.794;9.928;2023-12-29T17:44:44;13.10;99.90
6468;DHT22;3267;48.794;9.928;2023-12-29T17:47:10;13.00;99.90
6468;DHT22;3267;48.794;9.928;2023-12-29T17:49:35;13.10;99.90
6468;DHT22;3267;48.794;9.928;2023-12-29T17:52:01;13.00;99.90
6468;DHT22;3267;48.794;9.928;2023-12-29T17:54:27;14.70;99.90
6468;DHT22;3267;48.794;9.928;2023-12-29T17:56:53;12.90;99.90
6468;DHT22;3267;48.794;9.928;2023-12-29T17:59:18;13.30;99.90
6468;DHT22;3267;48.794;9.928;2023-12-29T18:01:48;13.40;99.90
6468;DHT22;3267;48.794;9.928;2023-12-29T18:04:14;13.40;99.90
6468;DHT22;3267;48.794;9.928;2023-12-29T18:06:40;14.40;99.90
6468;DHT22;3267;48.794;9.928;2023-12-29T18:09:06;12.90;99.90
6468;DHT22;3267;48.794;9.928;2023-12-29T18:11:36;12.80;99.90
6468;DHT22;3267;48.794;9.928;2023-12-29T18:14:02;12.70;99.90
6468;DHT22;3267;48.794;9.928;2023-12-29T18:16:28;12.80;99.90
6468;DHT22;3267;48.794;9.928;2023-12-29T18:18:56;13.20;99.90
6468;DHT22;3267;48.794;9.928;2023-12-29T18:21:22;12.90;99.90
6468;DHT22;3267;48.794;9.928;2023-12-29T18:23:47;12.80;99.90
6468;DHT22;3267;48.794;9.928;2023-12-29T18:26:13;13.40;99.90
6468;DHT22;3267;48.794;9.928;2023-12-29T18:28:39;13.10;99.90
6468;DHT22;3267;48.794;9.928;2023-12-29T18:31:05;13.00;99.90
6468;DHT22;3267;48.794;9.928;2023-12-29T18:33:31;12.50;99.90
6468;DHT22;3267;48.794;9.928;2023-12-29T18:36:05;15.00;99.90
6468;DHT22;3267;48.794;9.928;2023-12-29T18:38:31;12.60;99.90
6468;DHT22;3267;48.794;9.928;2023-12-29T18:40:57;12.50;99.90
6468;DHT22;3267;48.794;9.928;2023-12-29T18:43:22;12.50;99.90
6468;DHT22;3267;48.794;9.928;2023-12-29T18:45:49;10.70;99.90
6468;DHT22;3267;48.794;9.928;2023-12-29T18:48:15;12.50;99.90
6468;DHT22;3267;48.794;9.928;2023-12-29T18:50:41;14.10;99.90
6468;DHT22;3267;48.794;9.928;2023-12-29T18:53:07;12.30;99.90
6468;DHT22;3267;48.794;9.928;2023-12-29T18:55:34;12.50;99.90
6468;DHT22;3267;48.794;9.928;2023-12-29T18:58:00;15.00;99.90
6468;DHT22;3267;48.794;9.928;2023-12-29T19:00:26;12.70;99.90
6468;DHT22;3267;48.794;9.928;2023-12-29T19:02:52;12.50;99.90
6468;DHT22;3267;48.794;9.928;2023-12-29T19:05:18;12.20;99.90
6468;DHT22;3267;48.794;9.928;2023-12-29T19:07:44;12.60;99.90
6468;DHT22;3267;48.794;9.928;2023-12-29T19:10:09;12.20;99.90
6468;DHT22;3267;48.794;9.928;2023-12-29T19:12:36;12.20;99.90
6468;DHT22;3267;48.794;9.928;2023-12-29T19:15:03;12.20;99.90
6468;DHT22;3267;48.794;9.928;2023-12-29T19:17:30;12.20;99.90
6468;DHT22;3267;48.794;9.928;2023-12-29T19:19:55;14.70;99.90
6468;DHT22;3267;48.794;9.928;2023-12-29T19:22:21;12.00;99.90
6468;DHT22;3267;48.794;9.928;2023-12-29T19:24:47;11.90;99.90
6468;DHT22;3267;48.794;9.928;2023-12-29T19:27:14;12.90;99.90
6468;DHT22;3267;48.794;9.928;2023-12-29T19:29:41;12.50;99.90
6468;DHT22;3267;48.794;9.928;2023-12-29T19:32:07;12.00;99.90
6468;DHT22;3267;48.794;9.928;2023-12-29T19:34:34;11.90;99.90
6468;DHT22;3267;48.794;9.928;2023-12-29T19:36:59;11.80;99.90
6468;DHT22;3267;48.794;9.928;2023-12-29T19:39:26;11.80;99.90
6468;DHT22;3267;48.794;9.928;2023-12-29T19:41:52;13.00;99.90
6468;DHT22;3267;48.794;9.928;2023-12-29T19:44:18;11.90;99.90
6468;DHT22;3267;48.794;9.928;2023-12-29T19:46:44;12.30;99.90
6468;DHT22;3267;48.794;9.928;2023-12-29T19:49:10;12.20;99.90
6468;DHT22;3267;48.794;9.928;2023-12-29T19:51:35;12.10;99.90
6468;DHT22;3267;48.794;9.928;2023-12-29T19:54:01;15.20;99.90
6468;DHT22;3267;48.794;9.928;2023-12-29T19:56:28;13.70;99.90
6468;DHT22;3267;48.794;9.928;2023-12-29T19:58:54;14.00;99.90
6468;DHT22;3267;48.794;9.928;2023-12-29T20:01:20;12.50;99.90
6468;DHT22;3267;48.794;9.928;2023-12-29T20:03:47;14.10;99.90
6468;DHT22;3267;48.794;9.928;2023-12-29T20:06:30;12.40;99.90
6468;DHT22;3267;48.794;9.928;2023-12-29T20:08:56;12.70;99.90
6468;DHT22;3267;48.794;9.928;2023-12-29T20:11:22;14.10;99.90
6468;DHT22;3267;48.794;9.928;2023-12-29T20:13:47;12.30;99.90
6468;DHT22;3267;48.794;9.928;2023-12-29T20:16:22;12.60;99.90
6468;DHT22;3267;48.794;9.928;2023-12-29T20:18:50;12.80;99.90
6468;DHT22;3267;48.794;9.928;2023-12-29T20:21:23;12.80;99.90
6468;DHT22;3267;48.794;9.928;2023-12-29T20:23:50;12.60;99.90
6468;DHT22;3267;48.794;9.928;2023-12-29T20:26:23;12.50;99.90
6468;DHT22;3267;48.794;9.928;2023-12-29T20:28:51;12.60;99.90
6468;DHT22;3267;48.794;9.928;2023-12-29T20:31:31;12.60;99.90
6468;DHT22;3267;48.794;9.928;2023-12-29T20:33:58;12.40;99.90
6468;DHT22;3267;48.794;9.928;2023-12-29T20:36:24;12.10;99.90
6468;DHT22;3267;48.794;9.928;2023-12-29T20:38:50;12.10;99.90
6468;DHT22;3267;48.794;9.928;2023-12-29T20:41:18;12.30;99.90
6468;DHT22;3267;48.794;9.928;2023-12-29T20:43:44;12.10;99.90
6468;DHT22;3267;48.794;9.928;2023-12-29T20:46:15;12.20;99.90
6468;DHT22;3267;48.794;9.928;2023-12-29T20:48:41;12.40;99.90
6468;DHT22;3267;48.794;9.928;2023-12-29T20:51:07;12.40;99.90
6468;DHT22;3267;48.794;9.928;2023-12-29T20:53:36;12.20;99.90
6468;DHT22;3267;48.794;9.928;2023-12-29T20:56:02;12.10;99.90
6468;DHT22;3267;48.794;9.928;2023-12-29T20:58:28;12.00;99.90
6468;DHT22;3267;48.794;9.928;2023-12-29T21:00:53;12.00;99.90
6468;DHT22;3267;48.794;9.928;2023-12-29T21:03:19;12.00;99.90
6468;DHT22;3267;48.794;9.928;2023-12-29T21:05:45;13.50;99.90
6468;DHT22;3267;48.794;9.928;2023-12-29T21:08:10;11.90;99.90
6468;DHT22;3267;48.794;9.928;2023-12-29T21:10:37;11.90;99.90
6468;DHT22;3267;48.794;9.928;2023-12-29T21:13:03;11.70;99.90
6468;DHT22;3267;48.794;9.928;2023-12-29T21:15:29;11.60;99.90
6468;DHT22;3267;48.794;9.928;2023-12-29T21:17:55;11.50;99.90